Time;durP1;ratioP1;P1;durP2;ratioP2;P2;SDS_P1;SDS_P2;PMS_P1;PMS_P2;Temp;Humidity;BMP_temperature;BMP_pressure;BME280_temperature;BME280_humidity;BME280_pressure;Samples;Min_cycle;Max_cycle;Signal;HPM_P1;HPM_P2
2023/03/12 00:01:15;;;;;;;0.60;0.60;;;;;;;6.47;84.73;99173.53;5090532;28;20217;-73
2023/03/12 00:03:43;;;;;;;0.70;0.70;;;;;;;6.36;85.13;99159.63;5083737;28;20206;-73
2023/03/12 00:06:10;;;;;;;1.00;1.00;;;;;;;5.97;86.08;99112.63;5091082;28;20205;-74
2023/03/12 00:08:37;;;;;;;1.00;1.00;;;;;;;6.43;86.92;99196.63;5090840;28;20210;-74
2023/03/12 00:11:08;;;;;;;0.73;0.73;;;;;;;6.46;86.64;99197.53;5090936;28;20646;-77
2023/03/12 00:13:35;;;;;;;0.70;0.70;;;;;;;6.43;85.55;99192.34;5090650;28;20206;-73
2023/03/12 00:16:09;;;;;;;0.90;0.90;;;;;;;6.44;86.11;99178.63;5090992;28;20195;-73
2023/03/12 00:18:36;;;;;;;1.07;1.07;;;;;;;6.35;86.60;99191.34;5090592;28;20206;-72
2023/03/12 00:21:05;;;;;;;1.00;1.00;;;;;;;6.42;87.45;99193.19;5038806;28;20283;-72
2023/03/12 00:23:31;;;;;;;0.80;0.80;;;;;;;6.44;85.66;99191.50;5038184;28;20217;-72
2023/03/12 00:26:02;;;;;;;1.00;1.00;;;;;;;6.40;85.44;99174.28;5055171;28;20202;-72
2023/03/12 00:28:29;;;;;;;0.80;0.80;;;;;;;6.21;86.10;99167.06;5090416;28;20202;-73
2023/03/12 00:30:57;;;;;;;0.87;0.87;;;;;;;6.30;86.45;99185.25;5089866;28;20202;-73
2023/03/12 00:33:24;;;;;;;0.90;0.90;;;;;;;6.42;85.34;99184.63;5038995;28;20198;-72
2023/03/12 00:35:51;;;;;;;0.80;0.80;;;;;;;6.30;87.08;99187.84;5092731;28;20190;-72
2023/03/12 00:38:19;;;;;;;0.80;0.80;;;;;;;6.34;85.92;99187.06;5094531;28;20217;-72
2023/03/12 00:40:46;;;;;;;0.90;0.90;;;;;;;6.38;85.45;99194.00;5095084;28;20253;-72
2023/03/12 00:43:13;;;;;;;0.80;0.80;;;;;;;6.24;87.22;99189.44;5094820;28;20197;-72
2023/03/12 00:45:40;;;;;;;0.90;0.90;;;;;;;6.22;86.38;99191.97;5094808;28;20193;-72
2023/03/12 00:48:07;;;;;;;0.80;0.80;;;;;;;6.14;86.40;99170.38;5042460;28;20202;-73
2023/03/12 00:50:34;;;;;;;0.67;0.67;;;;;;;6.13;86.91;99186.69;5094527;28;20630;-72
2023/03/12 00:53:01;;;;;;;0.93;0.93;;;;;;;6.16;87.60;99180.72;5094515;28;20255;-72
2023/03/12 00:55:29;;;;;;;0.97;0.97;;;;;;;6.19;87.12;99185.91;5094579;28;20654;-72
2023/03/12 00:57:56;;;;;;;0.90;0.90;;;;;;;6.00;87.83;99179.56;5094167;28;20217;-72
2023/03/12 01:00:23;;;;;;;0.90;0.90;;;;;;;6.13;87.52;99196.09;5094472;28;20315;-72
2023/03/12 01:02:50;;;;;;;1.00;1.00;;;;;;;6.04;87.59;99195.91;5094408;28;20198;-72
2023/03/12 01:05:17;;;;;;;1.90;1.10;;;;;;;6.03;87.43;99186.47;5093896;28;20198;-72
2023/03/12 01:07:43;;;;;;;0.70;0.70;;;;;;;5.98;87.96;99196.69;5094400;28;20193;-74
2023/03/12 01:10:13;;;;;;;0.90;0.90;;;;;;;6.06;88.27;99199.41;5094296;28;20585;-73
2023/03/12 01:12:42;;;;;;;0.77;0.77;;;;;;;6.09;87.39;99202.91;5093035;28;20190;-73
2023/03/12 01:15:10;;;;;;;0.80;0.80;;;;;;;5.97;87.65;99203.53;5094148;28;20224;-72
2023/03/12 01:17:37;;;;;;;0.80;0.80;;;;;;;5.93;87.57;99203.44;5048894;28;20203;-72
2023/03/12 01:20:04;;;;;;;0.70;0.70;;;;;;;5.86;87.80;99205.03;5089984;28;20665;-71
2023/03/12 01:22:31;;;;;;;0.80;0.80;;;;;;;5.93;88.04;99188.00;5058589;28;20217;-72
2023/03/12 01:24:58;;;;;;;0.87;0.87;;;;;;;5.87;88.04;99203.31;5093336;28;20656;-72
2023/03/12 01:27:25;;;;;;;0.97;0.97;;;;;;;5.85;88.57;99197.25;5093365;28;20198;-73
2023/03/12 01:29:53;;;;;;;0.80;0.80;;;;;;;5.90;88.95;99217.09;5040736;28;20195;-72
2023/03/12 01:32:20;;;;;;;1.00;1.00;;;;;;;5.79;89.10;99210.84;5093099;28;20202;-72
2023/03/12 01:34:47;;;;;;;5.30;1.73;;;;;;;5.83;89.67;99211.78;5093591;28;20701;-73
2023/03/12 01:37:14;;;;;;;0.80;0.80;;;;;;;5.82;88.17;99210.91;5092617;28;20657;-72
2023/03/12 01:39:41;;;;;;;1.20;1.20;;;;;;;5.79;88.42;99221.13;5041435;28;20190;-72
2023/03/12 01:42:08;;;;;;;0.80;0.80;;;;;;;5.80;88.52;99209.16;5093603;28;20237;-72
2023/03/12 01:44:50;;;;;;;1.10;1.10;;;;;;;5.66;89.51;99192.56;5093429;28;20199;-72
2023/03/12 01:47:18;;;;;;;1.00;1.00;;;;;;;5.77;89.84;99206.53;5091821;28;20198;-72
2023/03/12 01:49:46;;;;;;;1.10;1.10;;;;;;;5.66;89.23;99208.00;5093801;28;20197;-73
2023/03/12 01:52:15;;;;;;;0.80;0.80;;;;;;;5.68;89.31;99212.34;5092896;28;20198;-73
2023/03/12 01:54:45;;;;;;;2.40;2.20;;;;;;;5.65;90.06;99211.41;5093497;28;20195;-72
2023/03/12 01:57:18;;;;;;;0.80;0.80;;;;;;;5.50;91.14;99211.94;5092840;28;20218;-72
2023/03/12 01:59:49;;;;;;;0.90;0.90;;;;;;;5.62;90.84;99213.91;5093408;28;20202;-72
2023/03/12 02:02:22;;;;;;;0.77;0.77;;;;;;;5.54;90.58;99213.75;5093052;28;20226;-72
2023/03/12 02:04:52;;;;;;;0.87;0.87;;;;;;;5.56;89.94;99222.38;5055170;28;20202;-72
2023/03/12 02:07:19;;;;;;;0.80;0.80;;;;;;;5.47;91.34;99228.19;5092677;28;20582;-72
2023/03/12 02:09:48;;;;;;;0.90;0.90;;;;;;;5.55;92.28;99224.91;5093035;28;20198;-72
2023/03/12 02:12:15;;;;;;;0.90;0.90;;;;;;;5.44;91.76;99225.56;5092400;28;20234;-72
2023/03/12 02:14:42;;;;;;;0.90;0.90;;;;;;;5.28;90.75;99205.50;5092023;28;20206;-73
2023/03/12 02:17:10;;;;;;;1.00;1.00;;;;;;;5.23;91.35;99212.25;5040828;28;20708;-73
2023/03/12 02:19:47;;;;;;;0.80;0.80;;;;;;;5.20;92.63;99227.59;5092883;28;20198;-71
2023/03/12 02:22:14;;;;;;;0.90;0.90;;;;;;;5.25;92.60;99241.41;5092864;28;20769;-72
2023/03/12 02:24:46;;;;;;;0.80;0.80;;;;;;;5.19;92.72;99218.16;5092711;28;20198;-72
2023/03/12 02:27:16;;;;;;;0.83;0.83;;;;;;;5.33;92.25;99239.00;5093094;28;20194;-72
2023/03/12 02:29:44;;;;;;;0.80;0.80;;;;;;;5.24;92.39;99260.25;5056747;28;20205;-73
2023/03/12 02:32:18;;;;;;;0.70;0.70;;;;;;;5.28;91.61;99241.47;5092380;28;20220;-72
2023/03/12 02:34:46;;;;;;;0.97;0.97;;;;;;;5.12;91.44;99239.41;5092382;28;20194;-72
2023/03/12 02:37:13;;;;;;;0.97;0.97;;;;;;;5.11;91.67;99224.81;5092290;28;20182;-72
2023/03/12 02:39:42;;;;;;;0.83;0.83;;;;;;;5.02;93.11;99232.31;5091942;28;20201;-73
2023/03/12 02:42:09;;;;;;;0.83;0.83;;;;;;;5.16;92.00;99264.34;5092906;28;20222;-73
2023/03/12 02:44:37;;;;;;;0.70;0.70;;;;;;;5.05;92.48;99234.06;5092226;28;20194;-72
2023/03/12 02:47:05;;;;;;;0.90;0.90;;;;;;;5.15;92.30;99257.44;5092274;28;20202;-72
2023/03/12 02:49:33;;;;;;;0.90;0.90;;;;;;;5.08;91.64;99247.88;5092117;28;20190;-72
2023/03/12 02:52:01;;;;;;;0.90;0.90;;;;;;;5.11;92.61;99263.34;5092444;28;20229;-72
2023/03/12 02:54:28;;;;;;;0.80;0.80;;;;;;;4.96;91.95;99257.84;5092391;28;20202;-72
2023/03/12 02:56:56;;;;;;;1.00;1.00;;;;;;;5.03;92.23;99277.69;5091906;28;20217;-73
2023/03/12 02:59:25;;;;;;;0.90;0.90;;;;;;;5.07;92.24;99258.97;5091986;28;20623;-73
2023/03/12 03:01:54;;;;;;;0.83;0.83;;;;;;;5.05;91.70;99255.50;5091405;28;20221;-72
2023/03/12 03:04:21;;;;;;;0.70;0.70;;;;;;;4.79;90.93;99208.66;5092395;28;20206;-72
2023/03/12 03:06:48;;;;;;;0.90;0.90;;;;;;;4.94;91.95;99254.38;5091611;28;20186;-73
2023/03/12 03:09:16;;;;;;;0.73;0.73;;;;;;;4.93;90.26;99271.47;5092023;28;20642;-73
2023/03/12 03:11:43;;;;;;;0.93;0.93;;;;;;;4.90;91.52;99275.69;5092159;28;20206;-74
2023/03/12 03:14:09;;;;;;;1.00;1.00;;;;;;;4.80;90.48;99255.75;5091849;28;20202;-72
2023/03/12 03:16:36;;;;;;;1.80;1.77;;;;;;;4.77;90.08;99260.81;5091920;28;20201;-72
2023/03/12 03:19:05;;;;;;;1.00;1.00;;;;;;;4.95;89.68;99284.38;5091410;28;20297;-72
2023/03/12 03:21:32;;;;;;;0.90;0.90;;;;;;;4.77;89.71;99271.09;5091435;28;20230;-71
2023/03/12 03:23:59;;;;;;;1.00;1.00;;;;;;;4.93;90.37;99294.59;5091104;28;20202;-72
2023/03/12 03:26:26;;;;;;;0.90;0.90;;;;;;;4.85;90.97;99296.09;5091582;28;20635;-73
2023/03/12 03:28:54;;;;;;;0.87;0.87;;;;;;;4.78;91.05;99303.66;5091504;28;20213;-73
2023/03/12 03:31:21;;;;;;;0.80;0.80;;;;;;;4.65;90.45;99289.59;5091537;28;20206;-72
2023/03/12 03:33:48;;;;;;;1.40;1.40;;;;;;;4.66;91.49;99295.63;5091882;28;20198;-71
2023/03/12 03:36:17;;;;;;;1.00;1.00;;;;;;;4.78;91.63;99290.81;5091153;28;20198;-72
2023/03/12 03:38:48;;;;;;;0.80;0.80;;;;;;;4.68;90.92;99306.78;5091184;28;20681;-72
2023/03/12 03:41:15;;;;;;;1.10;1.10;;;;;;;4.70;90.95;99323.09;5091325;28;20205;-73
2023/03/12 03:43:42;;;;;;;0.87;0.87;;;;;;;4.60;90.72;99311.75;5091324;28;20649;-72
2023/03/12 03:46:11;;;;;;;0.93;0.93;;;;;;;4.60;91.20;99328.84;5091039;28;20193;-73
2023/03/12 03:48:38;;;;;;;0.73;0.73;;;;;;;4.32;91.75;99299.84;5091103;28;20200;-72
2023/03/12 03:51:07;;;;;;;1.00;1.00;;;;;;;4.60;92.60;99341.66;5091184;28;20210;-73
2023/03/12 03:53:35;;;;;;;0.90;0.90;;;;;;;4.62;93.11;99329.72;5091240;28;20206;-73
2023/03/12 03:56:06;;;;;;;0.80;0.80;;;;;;;4.47;93.49;99338.75;5090980;28;20687;-72
2023/03/12 03:58:33;;;;;;;0.87;0.87;;;;;;;4.42;93.15;99357.44;5051763;28;20638;-72
2023/03/12 04:01:00;;;;;;;1.10;1.10;;;;;;;4.60;92.97;99364.78;5088064;28;20217;-72
2023/03/12 04:03:27;;;;;;;0.90;0.90;;;;;;;4.43;92.69;99365.16;5090773;28;20241;-72
2023/03/12 04:05:55;;;;;;;0.70;0.70;;;;;;;4.35;92.42;99348.69;5091007;28;20210;-73
2023/03/12 04:08:22;;;;;;;1.00;1.00;;;;;;;4.48;91.71;99380.69;5091026;28;20201;-73
2023/03/12 04:10:50;;;;;;;0.90;0.90;;;;;;;4.39;91.94;99373.59;5038228;28;20194;-73
2023/03/12 04:13:17;;;;;;;0.90;0.90;;;;;;;4.42;91.83;99390.81;5091066;28;20194;-72
2023/03/12 04:15:47;;;;;;;0.97;0.97;;;;;;;4.49;92.28;99385.84;5090679;28;20581;-72
2023/03/12 04:18:13;;;;;;;1.00;1.00;;;;;;;4.32;92.78;99387.09;5090439;28;20195;-72
2023/03/12 04:20:40;;;;;;;0.80;0.80;;;;;;;4.19;93.02;99384.13;5075461;28;20217;-72
2023/03/12 04:23:07;;;;;;;0.70;0.70;;;;;;;4.37;92.83;99395.81;5070763;28;20712;-73
2023/03/12 04:25:34;;;;;;;1.03;1.03;;;;;;;4.34;92.13;99403.41;5035579;28;20213;-73
2023/03/12 04:28:02;;;;;;;0.83;0.83;;;;;;;4.37;92.46;99403.50;5090534;28;20197;-73
2023/03/12 04:30:29;;;;;;;0.77;0.77;;;;;;;4.26;92.54;99415.16;5090690;28;20198;-73
2023/03/12 04:32:56;;;;;;;1.00;1.00;;;;;;;3.76;93.02;99338.41;5090994;28;20194;-72
2023/03/12 04:35:23;;;;;;;0.97;0.97;;;;;;;4.19;94.26;99420.91;5087784;28;20207;-72
2023/03/12 04:37:50;;;;;;;0.97;0.97;;;;;;;4.24;93.56;99421.94;5070814;28;20203;-72
2023/03/12 04:40:18;;;;;;;0.90;0.90;;;;;;;4.27;93.88;99427.16;5070690;28;20210;-72
2023/03/12 04:42:45;;;;;;;0.90;0.90;;;;;;;4.26;93.13;99422.84;5070675;28;20321;-73
2023/03/12 04:45:14;;;;;;;0.90;0.90;;;;;;;4.27;93.97;99427.16;5071181;28;20199;-72
2023/03/12 04:47:41;;;;;;;1.50;1.50;;;;;;;4.08;92.83;99404.34;5090199;28;20197;-73
2023/03/12 04:50:08;;;;;;;0.97;0.97;;;;;;;4.25;92.50;99451.00;5090336;28;20202;-71
2023/03/12 04:52:35;;;;;;;1.27;1.27;;;;;;;4.06;93.73;99416.25;5090708;28;20673;-72
2023/03/12 04:55:02;;;;;;;0.90;0.90;;;;;;;4.31;92.29;99456.34;5090419;28;20198;-71
2023/03/12 04:57:29;;;;;;;1.00;1.00;;;;;;;4.36;91.47;99452.19;5090285;28;20218;-72
2023/03/12 04:59:56;;;;;;;1.00;1.00;;;;;;;4.27;91.00;99451.94;5089756;28;20669;-72
2023/03/12 05:02:24;;;;;;;0.90;0.90;;;;;;;4.31;90.51;99466.59;5054693;28;20218;-72
2023/03/12 05:04:51;;;;;;;1.10;1.10;;;;;;;4.32;90.56;99476.03;5090141;28;20227;-73
2023/03/12 05:07:18;;;;;;;1.00;1.00;;;;;;;4.35;89.92;99487.25;5089852;28;20206;-72
2023/03/12 05:09:45;;;;;;;0.80;0.80;;;;;;;4.30;89.58;99473.44;5090445;28;20202;-72
2023/03/12 05:12:12;;;;;;;1.00;1.00;;;;;;;4.36;88.89;99483.88;5038772;28;20245;-72
2023/03/12 05:14:39;;;;;;;0.80;0.80;;;;;;;4.34;88.22;99498.34;5089495;28;20264;-72
2023/03/12 05:17:06;;;;;;;0.90;0.90;;;;;;;4.37;87.80;99489.88;5090102;28;20206;-72
2023/03/12 05:19:34;;;;;;;3.30;3.10;;;;;;;4.42;87.45;99502.00;5089872;28;20590;-73
2023/03/12 05:22:01;;;;;;;0.90;0.90;;;;;;;4.44;87.44;99510.63;5092776;28;20260;-72
2023/03/12 05:24:28;;;;;;;0.73;0.73;;;;;;;4.40;87.42;99511.34;5037678;28;20206;-73
2023/03/12 05:26:55;;;;;;;1.00;1.00;;;;;;;4.40;87.47;99521.63;5093581;28;20650;-72
2023/03/12 05:29:22;;;;;;;0.87;0.87;;;;;;;4.61;86.67;99515.38;5089833;28;20198;-71
2023/03/12 05:31:48;;;;;;;0.90;0.90;;;;;;;4.69;86.91;99535.31;5087992;28;20206;-72
2023/03/12 05:34:16;;;;;;;1.00;1.00;;;;;;;4.76;85.34;99537.25;5084757;28;20194;-73
2023/03/12 05:36:44;;;;;;;1.10;1.10;;;;;;;4.62;85.81;99537.66;5091071;28;20202;-72
2023/03/12 05:39:11;;;;;;;3.23;1.67;;;;;;;4.60;86.45;99537.63;5093697;28;20190;-74
2023/03/12 05:41:38;;;;;;;1.20;1.20;;;;;;;4.70;84.83;99544.78;5092885;28;20190;-73
2023/03/12 05:44:05;;;;;;;0.80;0.80;;;;;;;4.58;84.73;99530.69;5093777;28;20230;-73
2023/03/12 05:46:32;;;;;;;0.97;0.97;;;;;;;4.81;86.04;99560.50;5086716;28;20198;-69
2023/03/12 05:48:59;;;;;;;1.63;1.57;;;;;;;4.82;82.53;99564.78;5081570;28;20198;-73
2023/03/12 05:51:25;;;;;;;1.23;1.23;;;;;;;4.80;82.18;99557.06;5093553;28;20199;-73
2023/03/12 05:53:53;;;;;;;0.90;0.90;;;;;;;4.98;82.40;99587.53;5093151;28;20202;-73
2023/03/12 05:56:20;;;;;;;1.07;1.07;;;;;;;5.03;80.90;99588.53;5092221;28;20198;-74
2023/03/12 05:58:48;;;;;;;0.80;0.80;;;;;;;5.21;82.58;99601.06;5093579;28;20237;-78
2023/03/12 06:01:17;;;;;;;0.80;0.80;;;;;;;5.09;80.17;99593.00;5093284;28;20248;-74
2023/03/12 06:03:44;;;;;;;0.93;0.93;;;;;;;5.08;80.85;99602.38;5090846;28;20716;-75
2023/03/12 06:06:11;;;;;;;0.77;0.77;;;;;;;5.29;80.16;99608.13;5057459;28;20641;-76
2023/03/12 06:08:38;;;;;;;0.90;0.90;;;;;;;4.60;79.17;99498.25;5092907;28;20210;-75
2023/03/12 06:11:07;;;;;;;0.90;0.90;;;;;;;5.10;89.57;99528.78;5091829;28;20214;-72
2023/03/12 06:13:34;;;;;;;0.80;0.80;;;;;;;5.53;80.15;99620.78;5092990;28;20620;-76
2023/03/12 06:16:05;;;;;;;0.80;0.80;;;;;;;5.59;78.28;99610.69;5093618;28;20198;-77
2023/03/12 06:18:33;;;;;;;1.00;1.00;;;;;;;5.35;79.31;99586.91;5050905;28;20206;-78
2023/03/12 06:21:11;;;;;;;1.00;1.00;;;;;;;5.30;77.42;99604.75;5092968;28;20316;-77
2023/03/12 06:23:39;;;;;;;0.80;0.80;;;;;;;5.62;78.43;99651.03;5087288;28;20226;-78
2023/03/12 06:26:07;;;;;;;0.93;0.93;;;;;;;5.99;80.54;99646.09;5091676;28;20648;-78
2023/03/12 06:28:35;;;;;;;2.33;2.13;;;;;;;5.71;76.94;99633.28;5090307;28;20649;-75
2023/03/12 06:31:02;;;;;;;1.13;1.13;;;;;;;5.75;75.17;99659.13;5092106;28;20206;-76
2023/03/12 06:33:29;;;;;;;0.80;0.80;;;;;;;5.58;75.76;99641.50;5082590;28;20206;-77
2023/03/12 06:35:57;;;;;;;1.00;1.00;;;;;;;5.79;81.56;99655.81;5084959;28;20205;-76
2023/03/12 06:38:25;;;;;;;0.70;0.70;;;;;;;6.00;76.23;99668.41;5090735;28;20202;-80
2023/03/12 06:40:56;;;;;;;0.80;0.80;;;;;;;6.16;75.00;99673.13;5037670;28;20209;-77
2023/03/12 06:43:26;;;;;;;1.37;1.37;;;;;;;6.02;73.96;99677.03;5090411;28;20226;-76
2023/03/12 06:45:55;;;;;;;0.87;0.87;;;;;;;6.13;73.44;99677.31;5040367;28;20198;-77
2023/03/12 06:48:23;;;;;;;0.73;0.73;;;;;;;6.20;74.29;99684.38;5091568;28;20210;-72
2023/03/12 06:50:50;;;;;;;0.60;0.60;;;;;;;6.37;73.95;99691.69;5084641;28;20195;-77
2023/03/12 06:53:18;;;;;;;0.70;0.70;;;;;;;6.52;72.68;99688.63;5091643;28;20217;-76
2023/03/12 06:55:45;;;;;;;0.80;0.80;;;;;;;6.77;70.87;99692.66;5091697;28;20209;-77
2023/03/12 06:58:12;;;;;;;3.80;1.80;;;;;;;6.65;70.23;99706.13;5091657;28;20221;-76
2023/03/12 07:00:41;;;;;;;0.80;0.80;;;;;;;6.65;70.34;99698.38;5091028;28;20210;-77
2023/03/12 07:03:08;;;;;;;0.90;0.90;;;;;;;6.82;71.77;99698.78;5090549;28;20221;-78
2023/03/12 07:05:35;;;;;;;0.90;0.90;;;;;;;6.99;69.79;99716.38;5086991;28;20642;-78
2023/03/12 07:08:01;;;;;;;0.90;0.90;;;;;;;6.63;69.68;99714.66;5083404;28;20604;-78
2023/03/12 07:10:29;;;;;;;0.80;0.80;;;;;;;6.58;69.58;99680.16;5079477;28;20194;-78
2023/03/12 07:12:56;;;;;;;0.80;0.80;;;;;;;6.22;69.54;99642.38;5085867;28;20203;-76
2023/03/12 07:15:25;;;;;;;0.73;0.73;;;;;;;6.64;69.00;99708.63;5087541;28;20202;-75
2023/03/12 07:17:53;;;;;;;0.90;0.90;;;;;;;7.00;68.53;99704.38;5086436;28;20207;-76
2023/03/12 07:20:20;;;;;;;0.80;0.80;;;;;;;6.84;67.59;99695.44;5084265;28;20248;-76
2023/03/12 07:22:47;;;;;;;2.00;1.47;;;;;;;6.88;69.51;99717.81;5083095;28;20223;-75
2023/03/12 07:25:14;;;;;;;0.70;0.70;;;;;;;6.74;68.77;99720.94;5085567;28;20688;-75
2023/03/12 07:27:40;;;;;;;0.73;0.73;;;;;;;6.72;67.85;99700.28;5085982;28;20205;-75
2023/03/12 07:30:08;;;;;;;2.80;2.60;;;;;;;6.93;68.77;99726.56;5086314;28;20209;-75
2023/03/12 07:32:35;;;;;;;0.70;0.70;;;;;;;6.86;68.47;99729.81;5052220;28;20239;-75
2023/03/12 07:35:04;;;;;;;1.00;1.00;;;;;;;6.91;67.80;99727.38;5078921;28;20305;-73
2023/03/12 07:37:31;;;;;;;0.87;0.87;;;;;;;6.87;68.32;99728.13;5084577;28;20207;-74
2023/03/12 07:39:57;;;;;;;0.70;0.70;;;;;;;6.97;69.04;99723.22;5045260;28;20214;-74
2023/03/12 07:42:24;;;;;;;1.00;1.00;;;;;;;7.00;67.73;99706.94;5076557;28;20202;-76
2023/03/12 07:44:51;;;;;;;0.93;0.93;;;;;;;7.35;66.46;99729.22;5090499;28;20194;-77
2023/03/12 07:47:18;;;;;;;0.90;0.90;;;;;;;7.51;66.21;99721.81;5084045;28;20201;-77
2023/03/12 07:49:45;;;;;;;0.90;0.90;;;;;;;7.62;65.75;99738.41;5086864;28;20202;-77
2023/03/12 07:52:13;;;;;;;0.83;0.83;;;;;;;7.28;67.84;99749.69;5054193;28;20213;-77
2023/03/12 07:54:40;;;;;;;2.50;2.40;;;;;;;7.15;66.91;99743.38;5081180;28;20228;-75
2023/03/12 07:57:06;;;;;;;0.80;0.80;;;;;;;7.40;66.60;99766.31;5075930;28;20223;-76
2023/03/12 07:59:33;;;;;;;0.80;0.80;;;;;;;7.40;66.07;99766.31;5085534;28;20209;-77
2023/03/12 08:02:00;;;;;;;0.90;0.90;;;;;;;7.47;67.54;99773.34;5078059;28;20229;-74
2023/03/12 08:04:27;;;;;;;0.90;0.90;;;;;;;7.33;66.67;99782.50;5087463;28;20230;-77
2023/03/12 08:06:54;;;;;;;0.70;0.70;;;;;;;7.14;66.48;99771.69;5081018;28;20567;-75
2023/03/12 08:09:22;;;;;;;1.00;1.00;;;;;;;7.20;67.28;99772.75;5088873;28;20206;-74
2023/03/12 08:11:49;;;;;;;0.80;0.80;;;;;;;6.90;67.82;99748.81;5089451;28;20210;-75
2023/03/12 08:14:16;;;;;;;0.97;0.97;;;;;;;6.97;68.85;99794.50;5087726;28;20210;-75
2023/03/12 08:16:43;;;;;;;0.70;0.70;;;;;;;7.06;67.61;99789.59;5087163;28;20209;-74
2023/03/12 08:19:10;;;;;;;1.10;1.10;;;;;;;7.07;67.54;99796.47;5088929;28;20202;-74
2023/03/12 08:21:36;;;;;;;1.03;1.03;;;;;;;7.10;67.94;99801.69;5079868;28;20260;-75
2023/03/12 08:24:03;;;;;;;1.00;1.00;;;;;;;7.25;68.50;99799.47;5085921;28;20230;-75
2023/03/12 08:26:31;;;;;;;1.00;1.00;;;;;;;7.38;67.29;99795.50;5085520;28;20305;-74
2023/03/12 08:29:00;;;;;;;1.30;1.30;;;;;;;7.20;67.02;99808.84;5046269;28;20607;-78
2023/03/12 08:31:26;;;;;;;0.90;0.90;;;;;;;7.50;67.11;99813.81;5083050;28;20259;-75
2023/03/12 08:33:53;;;;;;;0.60;0.60;;;;;;;7.33;67.41;99800.53;5088344;28;20223;-74
2023/03/12 08:36:20;;;;;;;0.80;0.80;;;;;;;7.59;67.13;99808.00;5088802;28;20198;-77
2023/03/12 08:38:47;;;;;;;0.87;0.87;;;;;;;7.83;67.26;99814.56;5089150;28;20209;-74
2023/03/12 08:41:14;;;;;;;0.70;0.70;;;;;;;8.13;65.46;99819.50;5089614;28;20209;-72
2023/03/12 08:43:42;;;;;;;6.10;5.60;;;;;;;7.82;65.95;99822.25;5087464;28;20233;-76
2023/03/12 08:46:09;;;;;;;0.83;0.83;;;;;;;7.80;65.54;99819.66;5083412;28;20209;-72
2023/03/12 08:48:36;;;;;;;0.80;0.80;;;;;;;7.94;64.46;99843.19;5088055;28;20218;-73
2023/03/12 08:51:04;;;;;;;0.70;0.70;;;;;;;7.96;64.68;99844.97;5085610;28;20217;-75
2023/03/12 08:53:32;;;;;;;0.80;0.80;;;;;;;7.96;64.07;99855.28;5089685;28;20210;-76
2023/03/12 08:55:59;;;;;;;0.80;0.80;;;;;;;8.19;65.25;99853.19;5090261;28;20688;-75
2023/03/12 08:58:27;;;;;;;0.70;0.70;;;;;;;8.51;76.68;99840.06;5092646;28;20269;-71
2023/03/12 09:00:55;;;;;;;0.70;0.70;;;;;;;8.74;71.21;99865.50;5089766;28;20564;-71
2023/03/12 09:03:22;;;;;;;0.60;0.60;;;;;;;8.32;64.16;99841.41;5093003;28;20237;-75
2023/03/12 09:05:50;;;;;;;0.77;0.77;;;;;;;8.43;63.29;99871.81;5093544;28;20213;-75
2023/03/12 09:08:18;;;;;;;0.90;0.90;;;;;;;8.19;64.71;99834.25;5083587;28;20209;-72
2023/03/12 09:10:48;;;;;;;1.27;1.27;;;;;;;8.34;65.10;99866.47;5093260;28;20279;-74
2023/03/12 09:13:15;;;;;;;0.90;0.90;;;;;;;8.11;64.65;99839.25;5090857;28;20209;-75
2023/03/12 09:15:42;;;;;;;3.77;1.47;;;;;;;8.27;64.92;99859.41;5085571;28;20244;-72
2023/03/12 09:18:10;;;;;;;0.83;0.83;;;;;;;8.33;64.91;99864.72;5088256;28;20221;-74
2023/03/12 09:20:37;;;;;;;0.60;0.60;;;;;;;8.22;66.27;99855.84;5092432;28;20607;-81
2023/03/12 09:23:04;;;;;;;0.70;0.70;;;;;;;8.22;64.91;99861.00;5091646;28;20221;-72
2023/03/12 09:25:31;;;;;;;0.73;0.73;;;;;;;8.29;65.55;99862.91;5084181;28;20652;-77
2023/03/12 09:27:58;;;;;;;0.80;0.80;;;;;;;8.74;74.42;99865.50;5089593;28;20586;-72
2023/03/12 09:30:25;;;;;;;0.90;0.90;;;;;;;8.67;66.20;99862.81;5089590;28;20194;-73
2023/03/12 09:32:53;;;;;;;1.40;1.40;;;;;;;8.43;66.81;99871.81;5093045;28;20206;-74
2023/03/12 09:35:21;;;;;;;0.80;0.80;;;;;;;8.31;66.21;99832.78;5082501;28;20210;-74
2023/03/12 09:37:50;;;;;;;0.70;0.70;;;;;;;8.70;64.88;99883.53;5093036;28;20224;-74
2023/03/12 09:40:19;;;;;;;0.70;0.70;;;;;;;8.66;65.26;99873.97;5091304;28;20297;-74
2023/03/12 09:42:50;;;;;;;0.60;0.60;;;;;;;8.51;64.81;99865.91;5088406;28;20194;-74
2023/03/12 09:45:21;;;;;;;0.80;0.80;;;;;;;7.93;65.45;99761.41;5078433;28;20219;-74
2023/03/12 09:47:50;;;;;;;0.70;0.70;;;;;;;8.67;65.78;99901.56;5057398;28;20875;-75
2023/03/12 09:50:26;;;;;;;0.80;0.80;;;;;;;8.69;64.10;99905.03;5090964;28;20210;-75
2023/03/12 09:52:58;;;;;;;0.90;0.90;;;;;;;8.63;63.45;99902.34;5092255;28;20699;-74
2023/03/12 09:55:27;;;;;;;0.90;0.90;;;;;;;8.70;64.65;99906.78;5081606;28;20214;-74
2023/03/12 09:57:56;;;;;;;2.77;2.40;;;;;;;8.52;63.79;99927.97;5089869;28;20241;-77
2023/03/12 10:00:29;;;;;;;0.93;0.93;;;;;;;8.70;63.24;99919.72;5088389;28;20202;-78
2023/03/12 10:03:10;;;;;;;0.80;0.80;;;;;;;8.72;62.69;99925.78;5085359;28;21440;-73
2023/03/12 10:05:45;;;;;;;0.60;0.60;;;;;;;8.62;62.51;99934.19;5087210;28;20198;-73
2023/03/12 10:08:20;;;;;;;1.00;1.00;;;;;;;8.30;62.50;99939.56;5086202;28;20596;-75
2023/03/12 10:10:54;;;;;;;0.60;0.60;;;;;;;8.58;63.62;99933.25;5091544;28;20586;-74
2023/03/12 10:13:43;;;;;;;0.70;0.70;;;;;;;8.59;63.62;99926.38;5092918;28;20254;-73
2023/03/12 10:16:25;;;;;;;0.60;0.60;;;;;;;8.55;63.80;99945.25;5092486;28;20649;-75
2023/03/12 10:19:03;;;;;;;0.80;0.80;;;;;;;8.57;64.70;99931.50;5087864;28;20191;-75
2023/03/12 10:21:38;;;;;;;2.57;2.40;;;;;;;8.48;64.93;99920.13;5091936;28;20664;-75
2023/03/12 10:24:15;;;;;;;1.63;1.37;;;;;;;8.49;65.98;99919.28;5086175;28;20222;-75
2023/03/12 10:26:45;;;;;;;0.80;0.80;;;;;;;8.11;66.80;99942.53;5038816;28;20224;-76
2023/03/12 10:29:17;;;;;;;1.00;1.00;;;;;;;8.06;66.37;99930.38;5081558;28;20199;-76
2023/03/12 10:31:51;;;;;;;0.70;0.70;;;;;;;7.91;67.68;99947.25;5077173;28;20198;-76
2023/03/12 10:34:23;;;;;;;1.63;1.63;;;;;;;7.92;68.64;99954.13;5092224;28;20209;-74
2023/03/12 10:36:51;;;;;;;0.80;0.80;;;;;;;8.02;68.03;99960.41;5084391;28;20202;-73
2023/03/12 10:39:20;;;;;;;0.70;0.70;;;;;;;8.16;67.62;99959.00;5082430;28;20215;-76
2023/03/12 10:41:48;;;;;;;0.90;0.90;;;;;;;8.19;66.21;99937.53;5088659;28;20207;-74
2023/03/12 10:44:19;;;;;;;0.90;0.90;;;;;;;8.48;65.20;99953.69;5088775;28;20233;-73
2023/03/12 10:47:02;;;;;;;0.80;0.80;;;;;;;8.73;64.89;99958.53;5082884;28;20206;-75
2023/03/12 10:49:32;;;;;;;0.67;0.67;;;;;;;8.66;64.48;99952.38;5091241;28;20678;-73
2023/03/12 10:52:05;;;;;;;2.23;2.10;;;;;;;8.72;64.50;99952.50;5091259;28;20726;-72
2023/03/12 10:54:35;;;;;;;0.80;0.80;;;;;;;8.79;63.67;99958.66;5048198;28;20225;-74
2023/03/12 10:57:01;;;;;;;0.77;0.77;;;;;;;8.58;63.53;99958.22;5087560;28;20310;-74
2023/03/12 10:59:32;;;;;;;0.90;0.90;;;;;;;8.78;63.87;99951.72;5091039;28;20298;-74
2023/03/12 11:02:00;;;;;;;0.70;0.70;;;;;;;8.73;64.14;99945.63;5091302;28;20206;-74
2023/03/12 11:04:29;;;;;;;0.70;0.70;;;;;;;8.88;63.31;99941.59;5089257;28;20213;-74
2023/03/12 11:07:07;;;;;;;0.80;0.80;;;;;;;8.96;62.82;99931.41;5091649;28;20205;-76
2023/03/12 11:09:34;;;;;;;0.80;0.80;;;;;;;9.25;62.76;99938.00;5090459;28;20229;-75
2023/03/12 11:12:01;;;;;;;0.70;0.70;;;;;;;9.28;59.79;99913.88;5091441;28;20574;-75
2023/03/12 11:14:29;;;;;;;0.70;0.70;;;;;;;9.35;57.97;99905.38;5090344;28;20212;-75
2023/03/12 11:16:57;;;;;;;0.90;0.90;;;;;;;9.41;56.90;99914.16;5089752;28;20210;-75
2023/03/12 11:19:30;;;;;;;0.80;0.80;;;;;;;9.56;56.18;99918.66;5051656;28;20236;-74
2023/03/12 11:21:59;;;;;;;0.80;0.80;;;;;;;9.58;56.00;99931.66;5036175;28;20586;-74
2023/03/12 11:24:28;;;;;;;0.70;0.70;;;;;;;9.59;56.00;99892.00;5089314;28;20222;-75
2023/03/12 11:27:02;;;;;;;0.88;0.88;;;;;;;9.79;57.33;99883.69;5091155;28;20205;-77
2023/03/12 11:29:31;;;;;;;0.70;0.70;;;;;;;9.91;56.19;99893.34;5090724;28;20228;-76
2023/03/12 11:32:10;;;;;;;1.65;1.65;;;;;;;10.17;56.13;99928.28;5091205;28;20218;-75
2023/03/12 11:34:39;;;;;;;1.10;1.10;;;;;;;10.19;55.98;99910.19;5090356;28;20225;-79
2023/03/12 11:37:12;;;;;;;0.80;0.80;;;;;;;10.27;58.36;99909.41;5089287;28;20252;-71
2023/03/12 11:39:51;;;;;;;0.70;0.70;;;;;;;9.88;58.52;99795.75;5090135;28;20194;-74
2023/03/12 11:42:29;;;;;;;0.70;0.70;;;;;;;10.61;57.56;99894.28;5090401;28;20225;-75
2023/03/12 11:45:06;;;;;;;0.70;0.70;;;;;;;11.60;63.30;99911.69;5088551;28;20233;-74
2023/03/12 11:47:55;;;;;;;0.65;0.65;;;;;;;11.38;55.76;99887.28;5086766;28;20199;-73